Aeroporto :
LOGIN :

Iscrizione | Disclaimer

   EN    FR    IT 

 










Sommario :    VFR   VFR Marginale   IFR   IFR Intensivo   IFR Molto Intensivo
Visibilità : 
Base nubi : 
>= 8 km
>= 3000ft
5 / 8 km
1000 / 3000 ft
1500m / 5 km
500 / 1000 ft
800 / 1500m
200 / 500 ft
< 800m
< 200 ft
Simboli :   Temporali  Nebbia  Neve Forte  Precipitazioni Forti  Vento > 20 kt
SIGMETs :   Varie  Temporali  Ghiacco  Turbolenza  Onda orograficha  Ceneri Vulcaniche






- Altitudine del aeroporto : 989 ft
- Codice IATA : TRN


LIMF - Torino Caselle

ULTIMO METAR :
  • 040350Z 04004KT 4000 -RA BR OVC003 02/02 Q1000

METARs OBSOLETI :
  • 040320Z 01004KT 3000 -RA BR OVC004 02/02 Q1001
  • 040250Z 04004KT 3000 -RA BR BKN003 OVC014 02/02 Q1001
  • 040220Z 01003KT 3000 -DZSN BR OVC002 02/02 Q1002
  • 040150Z VRB02KT 1400 R36/P1500N -DZSN BR OVC002 01/01 Q1002
  • 040120Z 08003KT 1200 R36/P1500N -DZSN BR OVC002 01/01 Q1002

TAF TAF LIMF
Valido dal 04 a 00 ore il 05 a 00 ore UTC


032300Z 0400/0424 VRB05KT 3000 BR OVC005
TEMPO 0400/0405 1200 RASN
TEMPO 0405/0416 1200 SN



MetMap, La meteo Aeronautica in un colpo d'occhio ! - Copyright ORBIFLY Dicembre 2007 - Disclaimer

ORBIFLY MET'MAP TEAM :

Programmazione e sviluppo : Alexandra Zaïnal
Concezione : Baudouin d'Aumeries
Aiuto per la programmazione : Marc-Olivier Méhu
Supporto tecnico e logistico : Manuel Goepfert
Aiuto per la traduzione : Arnaldo La Scala

Contatto : metmap@orbifly.com




FONTI E CREDITI :

   NOAA